Time;durP1;ratioP1;P1;durP2;ratioP2;P2;SDS_P1;SDS_P2;PMS_P1;PMS_P2;Temp;Humidity;BMP_temperature;BMP_pressure;BME280_temperature;BME280_humidity;BME280_pressure;Samples;Min_cycle;Max_cycle;Signal;HPM_P1;HPM_P2
2023/01/03 00:01:07;;;;;;;0.20;0.20;;;;;;;6.19;100.00;97432.47;4963571;28;20105;-75
2023/01/03 00:03:55;;;;;;;0.20;0.20;;;;;;;6.22;100.00;97431.22;4947593;28;20065;-75
2023/01/03 00:06:46;;;;;;;0.10;0.10;;;;;;;6.23;100.00;97436.38;4947994;28;20129;-74
2023/01/03 00:09:32;;;;;;;0.10;0.10;;;;;;;6.19;100.00;97432.47;4947735;28;20245;-75
2023/01/03 00:12:23;;;;;;;0.10;0.10;;;;;;;6.19;100.00;97442.28;4949581;28;20058;-76
2023/01/03 00:15:10;;;;;;;0.20;0.20;;;;;;;6.24;100.00;97442.50;4949930;28;20047;-74
2023/01/03 00:17:55;;;;;;;0.10;0.10;;;;;;;6.26;100.00;97435.97;4949173;28;20039;-75
2023/01/03 00:20:41;;;;;;;0.10;0.10;;;;;;;6.25;100.00;97437.00;4945030;28;20325;-75
2023/01/03 00:23:27;;;;;;;0.10;0.10;;;;;;;6.29;100.00;97427.59;4946009;28;20102;-77
2023/01/03 00:26:17;;;;;;;0.10;0.10;;;;;;;6.34;100.00;97442.97;4948011;28;20039;-76
2023/01/03 00:29:03;;;;;;;0.10;0.10;;;;;;;6.37;100.00;97442.56;4945938;28;20387;-76
2023/01/03 00:31:49;;;;;;;0.20;0.20;;;;;;;6.34;100.00;97441.13;4945579;28;20049;-74
2023/01/03 00:34:35;;;;;;;0.10;0.10;;;;;;;6.24;100.00;97435.34;4946158;28;20073;-75
2023/01/03 00:37:21;;;;;;;0.10;0.10;;;;;;;6.19;100.00;97443.09;4946875;28;20047;-74
2023/01/03 00:40:08;;;;;;;0.20;0.20;;;;;;;6.02;100.00;97436.47;4946419;28;20047;-76
2023/01/03 00:46:01;;;;;;;0.10;0.10;;;;;;;5.59;100.00;97440.00;4946073;28;21174;-74
2023/01/03 00:48:47;;;;;;;0.17;0.17;;;;;;;5.42;100.00;97443.16;4945257;28;20050;-75
2023/01/03 00:51:35;;;;;;;0.10;0.10;;;;;;;5.24;100.00;97443.63;4944844;28;20319;-75
2023/01/03 00:54:21;;;;;;;0.10;0.10;;;;;;;5.07;100.00;97447.56;4945751;28;20692;-76
2023/01/03 00:57:07;;;;;;;0.10;0.10;;;;;;;4.93;100.00;97438.63;4948214;28;20039;-74
2023/01/03 00:59:53;;;;;;;0.10;0.10;;;;;;;4.88;100.00;97441.03;4945015;28;20035;-74
2023/01/03 01:02:39;;;;;;;0.10;0.10;;;;;;;4.85;100.00;97446.72;4946722;28;20047;-74
2023/01/03 01:05:27;;;;;;;0.10;0.10;;;;;;;4.78;100.00;97454.59;4949358;28;20039;-75
2023/01/03 01:08:13;;;;;;;0.10;0.10;;;;;;;4.69;100.00;97464.50;4946215;28;20387;-75
2023/01/03 01:11:02;;;;;;;0.20;0.20;;;;;;;4.68;100.00;97462.84;4945780;28;20043;-74
2023/01/03 01:13:49;;;;;;;0.10;0.10;;;;;;;4.55;100.00;97467.19;4945189;28;20379;-73
2023/01/03 01:16:34;;;;;;;0.13;0.13;;;;;;;4.50;100.00;97470.38;4946578;28;20753;-74
2023/01/03 01:19:26;;;;;;;0.13;0.13;;;;;;;4.55;100.00;97472.47;4943372;28;20476;-75
2023/01/03 01:22:12;;;;;;;0.10;0.10;;;;;;;4.64;100.00;97480.13;4958141;28;20455;-76
2023/01/03 01:24:58;;;;;;;0.17;0.17;;;;;;;4.77;100.00;97471.50;4945944;28;20035;-75
2023/01/03 01:27:44;;;;;;;0.10;0.10;;;;;;;4.75;100.00;97477.00;4945159;28;20046;-75
2023/01/03 01:30:30;;;;;;;0.10;0.10;;;;;;;4.83;100.00;97478.72;4943614;28;20046;-73
2023/01/03 01:33:16;;;;;;;0.20;0.20;;;;;;;4.89;100.00;97487.75;4946539;28;20095;-74
2023/01/03 01:36:07;;;;;;;0.20;0.20;;;;;;;4.97;100.00;97490.28;4943927;28;20039;-75
2023/01/03 01:38:56;;;;;;;0.20;0.20;;;;;;;4.99;100.00;97490.94;4946516;28;20105;-74
2023/01/03 01:44:56;;;;;;;0.10;0.10;;;;;;;5.18;100.00;97489.47;4944170;28;20073;-75
2023/01/03 01:47:48;;;;;;;0.10;0.10;;;;;;;5.30;100.00;97488.81;4943617;28;20200;-74
2023/01/03 01:50:42;;;;;;;0.20;0.20;;;;;;;5.22;100.00;97486.28;4942548;28;20085;-74
2023/01/03 01:53:32;;;;;;;0.10;0.10;;;;;;;5.19;100.00;97497.25;4945586;28;20391;-75
2023/01/03 01:56:22;;;;;;;0.10;0.10;;;;;;;5.17;100.00;97504.59;4944248;28;20039;-76
2023/01/03 01:59:10;;;;;;;0.10;0.10;;;;;;;5.13;100.00;97497.19;4943311;28;21092;-76
2023/01/03 02:01:56;;;;;;;0.10;0.10;;;;;;;5.10;100.00;97508.19;4958722;28;20136;-76
2023/01/03 02:04:43;;;;;;;0.20;0.20;;;;;;;5.08;100.00;97505.72;4965124;28;20058;-75
2023/01/03 02:07:29;;;;;;;0.10;0.10;;;;;;;5.01;100.00;97505.66;4962139;28;20050;-76
2023/01/03 02:10:15;;;;;;;0.20;0.20;;;;;;;5.00;100.00;97505.84;4965367;28;20050;-76
2023/01/03 02:13:36;;;;;;;0.10;0.10;;;;;;;4.89;100.00;97517.75;4964644;28;20089;-74
2023/01/03 02:16:28;;;;;;;0.20;0.20;;;;;;;4.90;100.00;97507.94;4965473;28;20050;-75
2023/01/03 02:19:20;;;;;;;0.10;0.10;;;;;;;5.03;100.00;97518.72;4964489;28;20049;-75
2023/01/03 02:22:44;;;;;;;0.10;0.10;;;;;;;4.95;100.00;97517.00;4965093;28;20074;-75
2023/01/03 02:25:33;;;;;;;0.10;0.10;;;;;;;4.98;100.00;97515.78;4957281;28;20049;-75
2023/01/03 02:28:40;;;;;;;0.10;0.10;;;;;;;4.95;100.00;97506.38;4961556;28;20044;-75
2023/01/03 02:31:47;;;;;;;0.10;0.10;;;;;;;4.92;100.00;97522.69;4952610;28;20707;-75
2023/01/03 02:34:42;;;;;;;0.20;0.20;;;;;;;4.79;100.00;97511.91;4943845;28;20038;-74
2023/01/03 02:37:41;;;;;;;0.13;0.13;;;;;;;4.81;100.00;97525.81;4943876;28;20256;-74
2023/01/03 02:40:51;;;;;;;0.10;0.10;;;;;;;4.80;100.00;97520.69;4943650;28;20050;-75
2023/01/03 02:43:52;;;;;;;0.15;0.15;;;;;;;4.82;100.00;97518.66;4944732;28;20245;-74
2023/01/03 02:46:44;;;;;;;0.20;0.20;;;;;;;4.83;100.00;97526.47;4942401;28;20045;-75
2023/01/03 02:49:33;;;;;;;;;;;;;;;4.85;100.00;97516.47;4942220;28;20042;-76
2023/01/03 02:52:24;;;;;;;0.10;0.10;;;;;;;4.82;100.00;97527.44;4944543;28;19913;-76
2023/01/03 02:55:16;;;;;;;0.20;0.20;;;;;;;4.75;100.00;97523.94;4943591;28;20047;-76
2023/01/03 02:58:11;;;;;;;0.20;0.20;;;;;;;4.85;100.00;97526.28;4944079;28;20051;-75
2023/01/03 03:01:00;;;;;;;0.20;0.20;;;;;;;4.84;100.00;97537.91;4942490;28;20058;-75
2023/01/03 03:03:48;;;;;;;0.20;0.20;;;;;;;4.96;100.00;97528.44;4942221;28;20047;-75
2023/01/03 03:07:02;;;;;;;0.13;0.13;;;;;;;4.88;100.00;97531.19;4943244;28;20554;-74
2023/01/03 03:13:12;;;;;;;0.20;0.20;;;;;;;4.78;100.00;97526.19;4946823;28;20129;-76
2023/01/03 03:16:05;;;;;;;0.13;0.13;;;;;;;4.82;100.00;97539.88;4943876;28;20042;-75
2023/01/03 03:18:58;;;;;;;0.20;0.20;;;;;;;4.80;100.00;97537.44;4943630;28;20227;-75
2023/01/03 03:24:54;;;;;;;0.10;0.10;;;;;;;4.71;100.00;97536.72;4941381;28;20389;-75
2023/01/03 03:30:50;;;;;;;0.10;0.10;;;;;;;4.80;100.00;97533.97;4942661;28;20313;-74
2023/01/03 03:33:48;;;;;;;0.10;0.10;;;;;;;4.82;100.00;97547.84;4942519;28;20332;-76
2023/01/03 03:36:53;;;;;;;0.10;0.10;;;;;;;4.86;100.00;97533.22;4942098;28;20177;-76
2023/01/03 03:46:16;;;;;;;0.20;0.20;;;;;;;4.96;100.00;97529.25;4941286;28;21615;-76
2023/01/03 03:52:18;;;;;;;0.20;0.20;;;;;;;4.99;100.00;97526.25;4944480;28;20134;-75
2023/01/03 03:55:14;;;;;;;0.10;0.10;;;;;;;4.96;100.00;97529.25;4943923;28;20125;-76
2023/01/03 03:58:25;;;;;;;0.13;0.13;;;;;;;5.06;100.00;97522.81;4945648;28;20046;-75
2023/01/03 04:01:15;;;;;;;0.20;0.20;;;;;;;5.11;100.00;97523.91;4945808;28;20065;-75
2023/01/03 04:04:10;;;;;;;0.10;0.10;;;;;;;5.07;100.00;97521.84;4946243;28;20061;-76
2023/01/03 04:06:56;;;;;;;0.10;0.10;;;;;;;5.16;100.00;97531.31;4944720;28;20841;-74
2023/01/03 04:09:44;;;;;;;0.10;0.10;;;;;;;5.15;100.00;97527.03;4945473;28;20058;-74
2023/01/03 04:12:30;;;;;;;0.15;0.15;;;;;;;5.15;100.00;97522.53;4947015;28;20617;-76
2023/01/03 04:15:16;;;;;;;0.20;0.20;;;;;;;5.17;100.00;97520.50;4944148;28;20090;-75
2023/01/03 04:18:02;;;;;;;0.13;0.13;;;;;;;5.12;100.00;97530.84;4946198;28;20065;-74
2023/01/03 04:20:48;;;;;;;0.10;0.10;;;;;;;5.19;100.00;97528.28;4940021;28;20038;-75
2023/01/03 04:23:34;;;;;;;0.10;0.10;;;;;;;5.21;100.00;97536.88;4944823;28;20046;-74
2023/01/03 04:26:20;;;;;;;0.10;0.10;;;;;;;5.23;100.00;97533.03;4945613;28;20315;-76
2023/01/03 04:29:05;;;;;;;0.17;0.17;;;;;;;5.26;100.00;97540.59;4943607;28;20081;-76
2023/01/03 04:31:51;;;;;;;0.13;0.13;;;;;;;5.18;100.00;97526.63;4959797;28;20504;-75
2023/01/03 04:34:37;;;;;;;0.10;0.10;;;;;;;5.22;100.00;97518.13;4965028;28;21023;-75
2023/01/03 04:37:23;;;;;;;0.20;0.20;;;;;;;5.18;100.00;97530.09;4965261;28;20042;-76
2023/01/03 04:40:09;;;;;;;0.20;0.20;;;;;;;5.11;100.00;97539.81;4966521;28;20046;-75
2023/01/03 04:46:01;;;;;;;0.10;0.10;;;;;;;4.99;100.00;97541.34;4964921;28;20119;-76
2023/01/03 04:48:47;;;;;;;0.20;0.20;;;;;;;4.95;100.00;97532.09;4966013;28;20386;-76
2023/01/03 04:51:33;;;;;;;0.20;0.20;;;;;;;4.91;100.00;97533.50;4965526;28;20310;-75
2023/01/03 04:54:19;;;;;;;0.20;0.20;;;;;;;4.85;100.00;97535.06;4965973;28;20552;-75
2023/01/03 04:57:05;;;;;;;0.10;0.10;;;;;;;4.78;100.00;97531.50;4966453;28;20042;-75
2023/01/03 04:59:51;;;;;;;0.10;0.10;;;;;;;4.98;100.00;97543.16;4965853;28;20034;-74
2023/01/03 05:02:37;;;;;;;0.20;0.20;;;;;;;5.07;100.00;97541.22;4966220;28;20509;-74
2023/01/03 05:05:22;;;;;;;0.10;0.10;;;;;;;5.08;100.00;97540.22;4965893;28;20034;-74
2023/01/03 05:08:11;;;;;;;0.10;0.10;;;;;;;5.07;100.00;97541.22;4963187;28;20375;-75
2023/01/03 05:10:56;;;;;;;0.10;0.10;;;;;;;5.01;100.00;97544.63;4965114;28;20049;-75
2023/01/03 05:13:42;;;;;;;0.10;0.10;;;;;;;5.04;100.00;97546.88;4965584;28;20086;-75
2023/01/03 05:16:28;;;;;;;0.20;0.20;;;;;;;5.10;100.00;97540.03;4966552;28;20035;-74
2023/01/03 05:19:14;;;;;;;0.10;0.10;;;;;;;5.12;100.00;97548.59;4964504;28;20906;-75
2023/01/03 05:28:09;;;;;;;0.20;0.20;;;;;;;5.18;100.00;97553.16;4964160;28;20443;-75
2023/01/03 05:30:58;;;;;;;0.20;0.20;;;;;;;5.20;100.00;97559.91;4955739;28;20058;-75
2023/01/03 05:33:44;;;;;;;0.10;0.10;;;;;;;5.20;100.00;97562.56;4957706;28;20161;-75
2023/01/03 05:36:30;;;;;;;0.10;0.10;;;;;;;5.15;100.00;97543.75;4943725;28;20042;-74
2023/01/03 05:39:16;;;;;;;0.10;0.10;;;;;;;5.22;100.00;97551.81;4943819;28;20817;-75
2023/01/03 05:42:03;;;;;;;0.20;0.20;;;;;;;5.20;100.00;97548.50;4944534;28;20121;-74
2023/01/03 05:44:49;;;;;;;0.10;0.10;;;;;;;5.24;100.00;97560.38;4945941;28;20046;-74
2023/01/03 05:47:35;;;;;;;0.10;0.10;;;;;;;5.19;100.00;97552.97;4944589;28;20486;-75
2023/01/03 05:50:24;;;;;;;0.10;0.10;;;;;;;5.18;100.00;97553.16;4944150;28;21355;-75
2023/01/03 05:53:09;;;;;;;0.20;0.20;;;;;;;5.13;100.00;97543.09;4944039;28;20090;-75
2023/01/03 05:55:55;;;;;;;0.10;0.10;;;;;;;5.12;100.00;97549.44;4946089;28;20400;-75
2023/01/03 05:58:43;;;;;;;0.20;0.20;;;;;;;5.05;100.00;97559.13;4946246;28;20510;-74
2023/01/03 06:01:29;;;;;;;0.10;0.10;;;;;;;4.84;100.00;97556.47;4956481;28;20042;-76
2023/01/03 06:04:14;;;;;;;0.10;0.10;;;;;;;4.75;100.00;97561.88;4965081;28;20169;-75
2023/01/03 06:07:00;;;;;;;0.20;0.20;;;;;;;4.58;100.00;97565.69;4964332;28;20042;-76
2023/01/03 06:09:46;;;;;;;0.10;0.10;;;;;;;4.46;100.00;97557.41;4965728;28;20390;-75
2023/01/03 06:12:32;;;;;;;0.10;0.10;;;;;;;4.38;100.00;97569.91;4964661;28;20455;-75
2023/01/03 06:15:19;;;;;;;0.13;0.13;;;;;;;4.28;100.00;97564.91;4976212;28;20519;-75
2023/01/03 06:18:07;;;;;;;0.10;0.10;;;;;;;4.22;100.00;97565.63;4964384;28;20157;-76
2023/01/03 06:20:56;;;;;;;0.20;0.20;;;;;;;4.16;100.00;97569.81;4964889;28;20046;-75
2023/01/03 06:23:46;;;;;;;0.20;0.20;;;;;;;4.05;100.00;97575.56;4964610;28;20487;-76
2023/01/03 06:26:32;;;;;;;0.10;0.10;;;;;;;3.92;100.00;97568.22;4963535;28;20594;-76
2023/01/03 06:29:18;;;;;;;0.20;0.20;;;;;;;3.82;100.00;97574.78;4962060;28;20410;-77
2023/01/03 06:32:04;;;;;;;0.10;0.10;;;;;;;3.77;100.00;97569.19;4945621;28;20049;-77
2023/01/03 06:34:50;;;;;;;0.20;0.20;;;;;;;3.68;100.00;97563.13;4957356;28;20534;-77
2023/01/03 06:37:36;;;;;;;0.10;0.10;;;;;;;3.56;100.00;97562.72;4943823;28;20133;-76
2023/01/03 06:40:22;;;;;;;0.10;0.10;;;;;;;3.49;100.00;97556.47;4934295;28;20047;-78
2023/01/03 06:43:08;;;;;;;0.10;0.10;;;;;;;3.41;100.00;97571.59;4942681;28;20072;-77
2023/01/03 06:55:18;;;;;;;0.20;0.20;;;;;;;3.23;100.00;97580.66;4942331;28;20051;-76
2023/01/03 06:58:04;;;;;;;0.10;0.10;;;;;;;3.21;100.00;97584.47;4943984;28;20551;-77
2023/01/03 07:00:51;;;;;;;0.20;0.20;;;;;;;3.19;100.00;97586.44;4944954;28;20051;-76
2023/01/03 07:03:37;;;;;;;0.10;0.10;;;;;;;3.15;100.00;97593.09;4946030;28;20062;-75
2023/01/03 07:06:22;;;;;;;0.10;0.10;;;;;;;3.16;100.00;97589.44;4942945;28;21053;-73
2023/01/03 07:09:09;;;;;;;0.20;0.20;;;;;;;3.16;100.00;97602.69;4945632;28;20042;-75
2023/01/03 07:11:56;;;;;;;0.10;0.10;;;;;;;3.28;100.00;97599.47;4945406;28;20047;-75
2023/01/03 07:14:42;;;;;;;0.15;0.15;;;;;;;3.50;100.00;97607.59;4946332;28;20043;-75
2023/01/03 07:17:28;;;;;;;0.20;0.20;;;;;;;3.67;100.00;97609.13;4943094;28;20046;-75
2023/01/03 07:20:14;;;;;;;0.10;0.10;;;;;;;3.75;100.00;97610.91;4945118;28;20053;-75
2023/01/03 07:23:00;;;;;;;0.10;0.10;;;;;;;3.87;100.00;97617.41;4943442;28;20177;-73
2023/01/03 07:25:46;;;;;;;0.10;0.10;;;;;;;4.06;100.00;97618.75;4946145;28;20272;-74
2023/01/03 07:28:32;;;;;;;0.10;0.10;;;;;;;4.01;100.00;97624.56;4943227;28;20170;-75
2023/01/03 07:31:18;;;;;;;0.10;0.10;;;;;;;4.00;100.00;97628.22;4928798;28;20061;-76
2023/01/03 07:34:04;;;;;;;0.10;0.10;;;;;;;3.99;100.00;97625.78;4949516;28;20567;-76
2023/01/03 07:36:50;;;;;;;0.10;0.10;;;;;;;3.95;100.00;97630.59;4948330;28;20034;-75
2023/01/03 07:39:37;;;;;;;0.20;0.20;;;;;;;3.85;100.00;97624.72;4946755;28;20050;-75
2023/01/03 07:45:26;;;;;;;0.20;0.20;;;;;;;3.95;100.00;97638.53;4946980;28;20130;-76
2023/01/03 07:48:13;;;;;;;0.20;0.20;;;;;;;3.82;100.00;97641.78;4948608;28;20073;-75
2023/01/03 07:50:59;;;;;;;0.10;0.10;;;;;;;3.48;100.00;97650.09;4949102;28;20876;-74
2023/01/03 07:53:48;;;;;;;0.20;0.20;;;;;;;3.44;100.00;97640.88;4948859;28;20410;-75
2023/01/03 07:56:34;;;;;;;0.20;0.20;;;;;;;3.32;100.00;97642.25;4950648;28;20035;-76
2023/01/03 07:59:20;;;;;;;0.20;0.20;;;;;;;3.22;100.00;97639.03;4948998;28;20726;-76
2023/01/03 08:02:07;;;;;;;0.10;0.10;;;;;;;3.30;100.00;97649.56;4951726;28;20306;-76
2023/01/03 08:04:53;;;;;;;0.20;0.20;;;;;;;3.25;100.00;97646.59;4950703;28;20065;-74
2023/01/03 08:07:38;;;;;;;0.20;0.20;;;;;;;3.20;100.00;97646.31;4947504;28;20311;-75
2023/01/03 08:13:29;;;;;;;0.20;0.20;;;;;;;3.22;100.00;97654.91;4948828;28;20054;-76
2023/01/03 08:16:17;;;;;;;0.20;0.20;;;;;;;3.19;100.00;97657.88;4947846;28;20073;-75
2023/01/03 08:19:03;;;;;;;0.13;0.13;;;;;;;3.21;100.00;97659.38;4948841;28;20125;-76
2023/01/03 08:21:48;;;;;;;0.20;0.20;;;;;;;3.28;100.00;97656.84;4949209;28;20647;-75
2023/01/03 08:24:34;;;;;;;0.10;0.10;;;;;;;3.48;100.00;97652.75;4960980;28;20046;-73
2023/01/03 08:27:20;;;;;;;0.10;0.10;;;;;;;3.67;100.00;97663.91;4950363;28;20046;-77
2023/01/03 08:30:06;;;;;;;0.20;0.20;;;;;;;3.66;100.00;97657.78;4949102;28;20721;-76
2023/01/03 08:32:54;;;;;;;0.10;0.10;;;;;;;3.82;100.00;97651.56;4967317;28;20050;-75
2023/01/03 08:35:43;;;;;;;0.10;0.10;;;;;;;3.88;100.00;97649.00;4969123;28;20049;-75
2023/01/03 08:38:34;;;;;;;0.20;0.20;;;;;;;3.81;100.00;97663.13;4968920;28;20049;-75
2023/01/03 08:41:24;;;;;;;0.10;0.10;;;;;;;3.77;100.00;97670.59;4971702;28;20506;-76
2023/01/03 08:44:10;;;;;;;0.10;0.10;;;;;;;3.81;100.00;97671.06;4967147;28;20052;-75
2023/01/03 08:46:59;;;;;;;0.20;0.20;;;;;;;3.78;100.00;97671.44;4968170;28;20458;-76
2023/01/03 08:49:45;;;;;;;0.13;0.13;;;;;;;3.73;100.00;97666.66;4968933;28;20466;-74
2023/01/03 08:52:31;;;;;;;0.17;0.17;;;;;;;3.76;100.00;97668.16;4965529;28;20053;-75
2023/01/03 08:55:17;;;;;;;0.20;0.20;;;;;;;3.80;100.00;97664.13;4968877;28;20486;-75
2023/01/03 08:58:03;;;;;;;0.20;0.20;;;;;;;3.91;100.00;97675.16;4968843;28;20046;-75
2023/01/03 09:00:49;;;;;;;0.20;0.20;;;;;;;3.98;100.00;97675.28;4963337;28;20043;-76
2023/01/03 09:03:35;;;;;;;0.10;0.10;;;;;;;4.16;100.00;97672.31;4946698;28;20379;-74
2023/01/03 09:06:20;;;;;;;0.10;0.10;;;;;;;4.40;100.00;97672.09;4947369;28;20042;-76
2023/01/03 09:09:07;;;;;;;0.10;0.10;;;;;;;4.57;100.00;97686.00;4947507;28;20570;-76
2023/01/03 09:11:53;;;;;;;0.20;0.20;;;;;;;4.59;100.00;97668.13;4946330;28;20148;-74
2023/01/03 09:14:39;;;;;;;0.10;0.10;;;;;;;4.75;100.00;97675.91;4949312;28;20047;-75
2023/01/03 09:17:25;;;;;;;0.20;0.20;;;;;;;4.70;100.00;97686.22;4946525;28;20050;-74
2023/01/03 09:20:12;;;;;;;0.20;0.20;;;;;;;4.85;100.00;97683.56;4948212;28;20049;-75
2023/01/03 09:22:58;;;;;;;0.10;0.10;;;;;;;4.92;100.00;97686.31;4948935;28;20510;-75
2023/01/03 09:25:46;;;;;;;0.10;0.10;;;;;;;4.87;100.00;97676.25;4948458;28;20268;-76
2023/01/03 09:28:32;;;;;;;0.20;0.20;;;;;;;4.99;100.00;97687.25;4946143;28;20591;-76
2023/01/03 09:31:18;;;;;;;0.10;0.10;;;;;;;5.11;100.00;97693.72;4948433;28;20482;-76
2023/01/03 09:34:04;;;;;;;0.20;0.20;;;;;;;5.35;100.00;97689.13;4947118;28;20678;-74
2023/01/03 09:36:50;;;;;;;0.20;0.20;;;;;;;5.24;100.00;97690.44;4948487;28;20050;-76
2023/01/03 09:39:36;;;;;;;0.20;0.20;;;;;;;5.14;100.00;97690.72;4946297;28;20121;-76
2023/01/03 09:45:32;;;;;;;0.20;0.20;;;;;;;5.17;100.00;97697.47;4945656;28;20679;-74
2023/01/03 09:48:39;;;;;;;0.20;0.20;;;;;;;5.43;100.00;97689.84;4946952;28;20052;-76
2023/01/03 10:04:26;;;;;;;0.30;0.30;;;;;;;12.12;100.00;97686.59;4967439;28;20058;-77
2023/01/03 10:07:23;;;;;;;0.30;0.30;;;;;;;11.49;100.00;97684.31;4968202;28;20449;-76
2023/01/03 10:10:09;;;;;;;0.30;0.30;;;;;;;12.53;100.00;97680.44;4967064;28;20141;-77
2023/01/03 10:13:12;;;;;;;0.30;0.30;;;;;;;13.84;100.00;97683.59;4968380;28;20515;-77
2023/01/03 10:16:08;;;;;;;0.20;0.20;;;;;;;14.61;100.00;97678.56;4967873;28;20479;-76
2023/01/03 10:19:15;;;;;;;0.30;0.30;;;;;;;13.94;99.44;97681.94;4964958;28;20042;-76
2023/01/03 10:22:13;;;;;;;0.30;0.30;;;;;;;13.06;100.00;97680.31;4976380;28;20046;-78
2023/01/03 10:25:07;;;;;;;0.20;0.20;;;;;;;14.14;100.00;97665.31;4968956;28;20046;-76
2023/01/03 10:28:00;;;;;;;0.30;0.30;;;;;;;14.53;97.26;97676.25;4966611;28;20065;-77
2023/01/03 10:31:11;;;;;;;0.30;0.30;;;;;;;15.52;94.81;97662.88;4959022;28;20272;-77
2023/01/03 10:33:57;;;;;;;0.13;0.13;;;;;;;13.84;100.00;97660.19;4934261;28;20066;-76
2023/01/03 10:36:42;;;;;;;0.25;0.25;;;;;;;13.46;98.96;97668.84;4945521;28;20292;-78
2023/01/03 10:39:30;;;;;;;0.20;0.20;;;;;;;11.20;100.00;97665.25;4946615;28;20162;-78
2023/01/03 10:42:18;;;;;;;0.10;0.10;;;;;;;9.95;100.00;97672.44;4946480;28;20578;-77
2023/01/03 10:45:28;;;;;;;0.10;0.10;;;;;;;8.90;100.00;97678.00;4948470;28;20145;-79
2023/01/03 10:48:14;;;;;;;0.10;0.10;;;;;;;8.99;100.00;97672.44;4947160;28;20609;-75
2023/01/03 10:51:03;;;;;;;0.10;0.10;;;;;;;8.19;100.00;97674.31;4946805;28;20495;-76
2023/01/03 10:53:51;;;;;;;0.10;0.10;;;;;;;7.39;100.00;97671.44;4946797;28;20105;-75
2023/01/03 10:56:38;;;;;;;0.30;0.30;;;;;;;10.89;100.00;97647.44;4946634;28;20050;-76
2023/01/03 10:59:29;;;;;;;0.30;0.30;;;;;;;12.37;100.00;97635.44;4946035;28;20091;-77
2023/01/03 11:02:17;;;;;;;0.30;0.30;;;;;;;15.22;100.00;97641.72;4946007;28;20515;-77
2023/01/03 11:05:15;;;;;;;0.20;0.20;;;;;;;17.01;81.19;97638.97;4946351;28;20538;-77
2023/01/03 11:08:03;;;;;;;0.28;0.28;;;;;;;17.51;87.00;97635.72;4944136;28;20487;-76
2023/01/03 11:11:11;;;;;;;0.25;0.25;;;;;;;18.52;63.25;97628.94;4947429;28;20120;-76
2023/01/03 11:14:22;;;;;;;0.30;0.30;;;;;;;18.67;61.38;97622.69;4947606;28;20043;-77
2023/01/03 11:17:18;;;;;;;;;;;;;;;16.69;69.91;97628.19;4945356;28;20042;-77
2023/01/03 11:20:17;;;;;;;0.20;0.20;;;;;;;16.47;76.78;97630.16;4948063;28;19918;-75
2023/01/03 11:23:12;;;;;;;0.20;0.20;;;;;;;15.93;78.26;97630.19;4947755;28;20050;-75
2023/01/03 11:26:06;;;;;;;0.13;0.13;;;;;;;16.40;72.89;97620.38;4949378;28;20446;-75
2023/01/03 11:29:06;;;;;;;0.20;0.20;;;;;;;17.90;66.21;97618.25;4946118;28;20113;-76
2023/01/03 11:32:22;;;;;;;0.20;0.20;;;;;;;17.51;61.27;97622.19;4961734;28;20050;-74
2023/01/03 11:35:11;;;;;;;0.00;0.00;;;;;;;12.50;99.84;97628.00;4965956;28;20096;-75
2023/01/03 11:38:35;;;;;;;0.10;0.10;;;;;;;11.41;100.00;97639.88;4978395;28;20315;-76
2023/01/03 11:41:47;;;;;;;0.30;0.30;;;;;;;14.97;93.44;97630.59;4963200;28;20042;-75
2023/01/03 11:44:50;;;;;;;0.20;0.20;;;;;;;17.42;69.94;97631.06;4965668;28;20096;-78
2023/01/03 11:47:49;;;;;;;0.30;0.30;;;;;;;17.17;73.39;97616.34;4621461;28;9999852;-77
2023/01/03 11:51:10;;;;;;;0.20;0.20;;;;;;;18.75;60.74;97605.06;4966075;28;20042;-78
2023/01/03 11:54:06;;;;;;;0.28;0.28;;;;;;;17.92;60.57;97616.13;4965059;28;20049;-77
2023/01/03 11:56:52;;;;;;;0.10;0.10;;;;;;;17.28;80.15;97609.09;4966320;28;20089;-76
2023/01/03 12:00:07;;;;;;;0.20;0.20;;;;;;;17.02;70.47;97615.44;4964173;28;20054;-77
2023/01/03 12:03:30;;;;;;;0.20;0.20;;;;;;;17.58;63.53;97607.59;4962431;28;20439;-77
2023/01/03 12:06:52;;;;;;;0.20;0.20;;;;;;;20.76;48.86;97587.22;4963894;28;20435;-77
2023/01/03 12:10:09;;;;;;;0.10;0.10;;;;;;;21.97;41.19;97595.06;4964411;28;20346;-77
2023/01/03 12:13:04;;;;;;;0.20;0.20;;;;;;;18.24;51.15;97602.34;4965910;28;20397;-78
2023/01/03 12:16:15;;;;;;;0.25;0.25;;;;;;;17.47;60.03;97583.19;4962219;28;20040;-77
2023/01/03 12:19:13;;;;;;;0.00;0.00;;;;;;;13.94;83.65;97595.00;4964996;28;20578;-77
2023/01/03 12:22:15;;;;;;;0.08;0.08;;;;;;;11.56;100.00;97610.81;4966034;28;20050;-76
2023/01/03 12:25:15;;;;;;;0.10;0.10;;;;;;;10.82;100.00;97604.69;4967319;28;20128;-76
2023/01/03 12:28:09;;;;;;;0.10;0.10;;;;;;;10.07;100.00;97601.22;4967517;28;20144;-74
2023/01/03 12:31:28;;;;;;;0.10;0.10;;;;;;;10.15;100.00;97606.28;4970827;28;20043;-75
2023/01/03 12:34:41;;;;;;;0.10;0.10;;;;;;;10.32;100.00;97599.38;4917374;28;20660;-75
2023/01/03 12:37:35;;;;;;;0.10;0.10;;;;;;;9.44;100.00;97603.88;4947824;28;20253;-75
2023/01/03 12:40:40;;;;;;;0.10;0.10;;;;;;;8.90;100.00;97597.09;4959929;28;20428;-77
2023/01/03 12:43:38;;;;;;;0.10;0.10;;;;;;;8.71;100.00;97601.44;4946605;28;20321;-76
2023/01/03 12:46:37;;;;;;;0.10;0.10;;;;;;;8.39;100.00;97603.13;4946907;28;20042;-75
2023/01/03 12:49:30;;;;;;;0.15;0.15;;;;;;;8.09;100.00;97594.69;4945908;28;20078;-77
2023/01/03 12:52:20;;;;;;;0.10;0.10;;;;;;;8.05;100.00;97583.63;4946815;28;20051;-78
2023/01/03 12:55:33;;;;;;;0.10;0.10;;;;;;;8.60;100.00;97583.41;4948605;28;20046;-76
2023/01/03 12:58:32;;;;;;;0.10;0.10;;;;;;;8.40;100.00;97578.09;4946151;28;20158;-76
2023/01/03 13:01:34;;;;;;;0.10;0.10;;;;;;;8.36;100.00;97583.03;4956920;28;20611;-76
2023/01/03 13:04:33;;;;;;;0.10;0.10;;;;;;;8.61;100.00;97572.53;4966414;28;20097;-74
2023/01/03 13:07:32;;;;;;;0.10;0.10;;;;;;;9.08;100.00;97575.06;4968815;28;20070;-74
2023/01/03 13:10:24;;;;;;;0.10;0.10;;;;;;;8.86;100.00;97570.00;4966443;28;20061;-74
2023/01/03 13:13:16;;;;;;;0.10;0.10;;;;;;;8.79;100.00;97571.03;4967026;28;20104;-76
2023/01/03 13:16:33;;;;;;;0.10;0.10;;;;;;;8.99;100.00;97566.47;4968618;28;20403;-76
2023/01/03 13:19:19;;;;;;;0.10;0.10;;;;;;;9.25;100.00;97565.53;4967562;28;20304;-74
2023/01/03 13:22:43;;;;;;;0.10;0.10;;;;;;;8.78;100.00;97570.22;4969487;28;20050;-76
2023/01/03 13:25:36;;;;;;;0.10;0.10;;;;;;;8.15;100.00;97563.75;4968925;28;20112;-75
2023/01/03 13:28:23;;;;;;;0.10;0.10;;;;;;;7.81;100.00;97563.75;4966585;28;20645;-77
2023/01/03 13:31:18;;;;;;;0.10;0.10;;;;;;;8.01;100.00;97560.25;4959164;28;20051;-77
2023/01/03 13:34:29;;;;;;;0.10;0.10;;;;;;;7.61;100.00;97559.41;4949142;28;20047;-76
2023/01/03 13:37:17;;;;;;;0.20;0.20;;;;;;;8.34;100.00;97558.41;4960957;28;20628;-75
2023/01/03 13:40:20;;;;;;;0.10;0.10;;;;;;;8.54;100.00;97568.22;4947860;28;20312;-76
2023/01/03 13:43:17;;;;;;;0.10;0.10;;;;;;;8.74;100.00;97562.88;4949899;28;20061;-77
2023/01/03 13:46:23;;;;;;;0.10;0.10;;;;;;;8.62;100.00;97563.50;4949651;28;20563;-75
2023/01/03 13:49:18;;;;;;;0.10;0.10;;;;;;;8.37;100.00;97567.84;4949209;28;20592;-76
2023/01/03 13:52:05;;;;;;;0.10;0.10;;;;;;;8.30;100.00;97556.34;4949311;28;20051;-76
2023/01/03 13:54:56;;;;;;;0.10;0.10;;;;;;;8.57;100.00;97563.31;4947635;28;20047;-75
2023/01/03 13:57:52;;;;;;;0.10;0.10;;;;;;;8.44;100.00;97555.34;4945643;28;20038;-77
2023/01/03 14:00:39;;;;;;;0.10;0.10;;;;;;;7.64;100.00;97543.03;4946807;28;20049;-76
2023/01/03 14:03:56;;;;;;;0.10;0.10;;;;;;;7.79;100.00;97549.00;4949655;28;20067;-75
2023/01/03 14:07:03;;;;;;;0.20;0.20;;;;;;;8.13;100.00;97561.28;4947082;28;20039;-76
2023/01/03 14:10:10;;;;;;;0.10;0.10;;;;;;;7.98;100.00;97553.50;4945724;28;20389;-77
2023/01/03 14:13:14;;;;;;;0.10;0.10;;;;;;;7.65;100.00;97552.66;4946804;28;20402;-77
2023/01/03 14:16:52;;;;;;;0.20;0.20;;;;;;;7.65;100.00;97558.81;4959903;28;20414;-76
2023/01/03 14:19:41;;;;;;;0.20;0.20;;;;;;;7.94;100.00;97557.63;4947139;28;20320;-75
2023/01/03 14:22:37;;;;;;;0.10;0.10;;;;;;;7.67;100.00;97550.59;4947829;28;20247;-78
2023/01/03 14:25:31;;;;;;;0.10;0.10;;;;;;;7.73;100.00;97558.63;4947737;28;20042;-78
2023/01/03 14:28:24;;;;;;;0.20;0.20;;;;;;;8.08;100.00;97569.06;4947406;28;20940;-78
2023/01/03 14:31:18;;;;;;;0.10;0.10;;;;;;;8.09;100.00;97576.03;4957536;28;20172;-77
2023/01/03 14:34:06;;;;;;;0.10;0.10;;;;;;;7.88;100.00;97573.59;4966142;28;20050;-77
2023/01/03 14:36:59;;;;;;;0.20;0.20;;;;;;;7.22;100.00;97572.44;4963328;28;20077;-76